createdAt,value
2023-09-17T00:02:38.343Z,962.77
2023-09-17T00:17:39.134Z,962.83
2023-09-17T00:32:40.037Z,962.83
2023-09-17T00:47:40.594Z,962.66
2023-09-17T01:02:43.847Z,962.78
2023-09-17T01:17:41.641Z,962.87
2023-09-17T01:32:42.435Z,962.89
2023-09-17T01:47:42.971Z,962.87
2023-09-17T02:02:43.892Z,962.71
2023-09-17T02:17:44.638Z,962.68
2023-09-17T02:32:45.201Z,962.92
2023-09-17T02:47:45.828Z,963.07
2023-09-17T03:02:46.407Z,963.18
2023-09-17T03:17:46.696Z,963.15
2023-09-17T03:33:01.972Z,963.28
2023-09-17T03:47:48.933Z,963.24
2023-09-17T04:02:48.108Z,963.24
2023-09-17T04:17:48.889Z,963.33
2023-09-17T04:32:51.694Z,963.20
2023-09-17T04:47:50.016Z,963.33
2023-09-17T05:02:51.024Z,963.34
2023-09-17T05:17:51.236Z,963.58
2023-09-17T05:32:51.947Z,963.71
2023-09-17T05:47:52.769Z,963.79
2023-09-17T06:02:53.259Z,963.78
2023-09-17T06:17:54.036Z,964.10
2023-09-17T06:32:54.932Z,964.17
2023-09-17T06:47:55.466Z,964.14
2023-09-17T07:02:55.852Z,964.14
2023-09-17T07:17:56.339Z,964.21
2023-09-17T07:32:57.176Z,964.34
2023-09-17T07:47:57.783Z,964.39
2023-09-17T08:02:58.349Z,964.40
2023-09-17T08:17:59.077Z,964.52
2023-09-17T08:32:59.617Z,964.52
2023-09-17T08:48:00.437Z,964.52
2023-09-17T09:03:01.363Z,964.53
2023-09-17T09:18:02.122Z,964.42
2023-09-17T09:33:02.522Z,964.37
2023-09-17T09:48:03.241Z,964.31
2023-09-17T10:03:03.733Z,964.32
2023-09-17T10:18:04.314Z,964.26
2023-09-17T10:33:05.058Z,964.03
2023-09-17T10:48:05.804Z,963.99
2023-09-17T11:03:06.477Z,963.73
2023-09-17T11:18:06.761Z,963.57
2023-09-17T11:33:07.475Z,963.58
2023-09-17T11:48:07.803Z,963.50
2023-09-17T12:03:08.338Z,963.43
2023-09-17T12:18:09.078Z,963.27
2023-09-17T12:33:09.851Z,963.30
2023-09-17T12:48:10.405Z,963.10
2023-09-17T13:03:10.832Z,962.86
2023-09-17T13:18:11.450Z,962.69
2023-09-17T13:33:12.236Z,962.53
2023-09-17T13:48:13.222Z,962.43
2023-09-17T14:03:13.722Z,962.30
2023-09-17T14:18:14.526Z,962.29
2023-09-17T14:33:15.374Z,962.21
2023-09-17T14:48:15.964Z,962.20
2023-09-17T15:03:17.107Z,962.14
2023-09-17T15:18:16.953Z,962.08
2023-09-17T15:33:17.339Z,962.09
2023-09-17T15:48:17.623Z,961.98
2023-09-17T16:03:20.441Z,961.89
2023-09-17T16:18:19.021Z,961.85
2023-09-17T16:33:19.958Z,961.79
2023-09-17T16:48:20.447Z,961.81
2023-09-17T17:03:21.074Z,961.71
2023-09-17T17:18:21.378Z,961.67
2023-09-17T17:33:21.935Z,961.53
2023-09-17T17:48:43.421Z,961.62
2023-09-17T18:03:24.533Z,961.63
2023-09-17T18:18:45.417Z,961.56
2023-09-17T18:33:24.824Z,961.48
2023-09-17T18:48:25.767Z,961.40
2023-09-17T19:03:26.626Z,961.33
2023-09-17T19:18:27.113Z,961.32
2023-09-17T19:33:27.889Z,961.32
2023-09-17T20:03:29.289Z,961.09
2023-09-17T20:18:29.824Z,960.98
2023-09-17T20:33:30.344Z,960.95
2023-09-17T20:48:31.074Z,961.04
2023-09-17T21:03:31.923Z,961.02
2023-09-17T21:18:37.553Z,961.02
2023-09-17T21:33:32.712Z,960.84
2023-09-17T21:48:33.497Z,960.76
2023-09-17T22:03:34.414Z,960.69
2023-09-17T22:18:35.199Z,960.53
2023-09-17T22:33:35.429Z,960.30
2023-09-17T22:48:35.954Z,960.35
2023-09-17T23:03:36.611Z,960.29
2023-09-17T23:18:37.319Z,960.19
2023-09-17T23:33:38.174Z,960.05
2023-09-17T23:48:39.116Z,960.03
